createdAt,value
2023-04-01T00:02:42.755Z,96269.97
2023-04-01T00:06:37.088Z,96270.23
2023-04-01T00:09:55.570Z,96263.48
2023-04-01T00:13:33.396Z,96263.75
2023-04-01T00:17:30.395Z,96265.70
2023-04-01T00:20:51.424Z,96264.59
2023-04-01T00:24:26.388Z,96269.91
2023-04-01T00:28:04.165Z,96263.96
2023-04-01T00:32:01.217Z,96259.56
2023-04-01T00:35:19.565Z,96252.39
2023-04-01T00:38:59.970Z,96251.89
2023-04-01T00:42:34.850Z,96248.39
2023-04-01T00:46:12.289Z,96245.02
2023-04-01T00:50:10.986Z,96250.17
2023-04-01T00:53:50.310Z,96249.13
2023-04-01T00:57:31.434Z,96249.15
2023-04-01T01:00:44.136Z,96238.98
2023-04-01T01:04:40.548Z,96240.48
2023-04-01T01:08:01.194Z,96237.89
2023-04-01T01:12:17.651Z,96238.54
2023-04-01T01:15:50.354Z,96237.73
2023-04-01T01:19:21.138Z,96231.67
2023-04-01T01:23:17.499Z,96235.77
2023-04-01T01:26:39.732Z,96240.74
2023-04-01T01:30:08.814Z,96246.52
2023-04-01T01:34:13.841Z,96249.11
2023-04-01T01:37:20.266Z,96247.52
2023-04-01T01:40:58.396Z,96244.90
2023-04-01T01:44:52.609Z,96238.15
2023-04-01T01:48:11.677Z,96243.19
2023-04-01T01:52:06.230Z,96242.35
2023-04-01T01:55:38.766Z,96237.70
2023-04-01T01:59:12.062Z,96238.23
2023-04-01T02:02:45.386Z,96233.70
2023-04-01T02:06:24.608Z,96231.48
2023-04-01T02:10:15.349Z,96234.20
2023-04-01T02:13:57.382Z,96230.41
2023-04-01T02:17:32.553Z,96229.42
2023-04-01T02:21:09.136Z,96229.59
2023-04-01T02:24:29.090Z,96231.52
2023-04-01T02:28:07.439Z,96239.77
2023-04-01T02:31:43.472Z,96241.53
2023-04-01T02:35:19.964Z,96247.22
2023-04-01T02:39:03.139Z,96247.20
2023-04-01T02:42:54.030Z,96249.14
2023-04-01T02:46:12.518Z,96251.67
2023-04-01T02:49:50.158Z,96257.33
2023-04-01T02:53:27.778Z,96262.70
2023-04-01T02:57:05.512Z,96269.30
2023-04-01T03:00:43.537Z,96270.23
2023-04-01T03:04:39.771Z,96272.77
2023-04-01T03:07:58.473Z,96272.80
2023-04-01T03:11:55.207Z,96268.50
2023-04-01T03:15:15.692Z,96271.02
2023-04-01T03:18:53.633Z,96274.95
2023-04-01T03:22:29.188Z,96277.91
2023-04-01T03:26:06.964Z,96279.24
2023-04-01T03:30:05.075Z,96275.73
2023-04-01T03:33:22.288Z,96277.83
2023-04-01T03:37:00.334Z,96277.23
2023-04-01T03:40:39.217Z,96273.98
2023-04-01T03:44:15.362Z,96274.14
2023-04-01T03:47:53.164Z,96274.19
2023-04-01T03:51:31.065Z,96273.30
2023-04-01T03:55:08.785Z,96272.35
2023-04-01T03:58:46.024Z,96271.57
2023-04-01T04:02:23.682Z,96275.81
2023-04-01T04:06:20.588Z,96274.86
2023-04-01T04:09:39.261Z,96278.84
2023-04-01T04:13:16.708Z,96278.63
2023-04-01T04:16:54.568Z,96283.10
2023-04-01T04:20:51.501Z,96290.61
2023-04-01T04:24:29.271Z,96288.23
2023-04-01T04:28:06.447Z,96288.98
2023-04-01T04:31:44.132Z,96286.98
2023-04-01T04:35:21.783Z,96288.41
2023-04-01T04:39:02.261Z,96291.60
2023-04-01T04:42:37.025Z,96294.49
2023-04-01T04:45:56.196Z,96293.24
2023-04-01T04:49:52.536Z,96292.56
2023-04-01T04:53:30.474Z,96294.54
2023-04-01T04:56:48.974Z,96298.55
2023-04-01T05:00:26.741Z,96294.27
2023-04-01T05:04:23.084Z,96297.49
2023-04-01T05:08:01.917Z,96299.80
2023-04-01T05:11:38.503Z,96299.93
2023-04-01T05:15:16.336Z,96299.34
2023-04-01T05:18:54.281Z,96300.89
2023-04-01T05:22:12.916Z,96297.86
2023-04-01T05:25:51.967Z,96299.02
2023-04-01T05:29:28.165Z,96295.29
2023-04-01T05:33:05.630Z,96298.17
2023-04-01T05:36:44.641Z,96301.08
2023-04-01T05:40:40.346Z,96299.20
2023-04-01T05:43:58.858Z,96301.34
2023-04-01T05:47:36.496Z,96293.33
2023-04-01T05:51:15.692Z,96297.02
2023-04-01T05:54:52.190Z,96295.83
2023-04-01T05:58:52.030Z,96296.21
2023-04-01T06:02:07.191Z,96298.00
2023-04-01T06:05:45.120Z,96298.81
2023-04-01T06:09:28.264Z,96301.72
2023-04-01T06:13:06.404Z,96301.77
2023-04-01T06:16:58.154Z,96304.70
2023-04-01T06:20:21.500Z,96301.54
2023-04-01T06:24:06.573Z,96302.27
2023-04-01T06:27:52.579Z,96303.96
2023-04-01T06:31:16.381Z,96305.72
2023-04-01T06:35:11.624Z,96306.80
2023-04-01T06:38:37.564Z,96309.08
2023-04-01T06:42:16.927Z,96315.56
2023-04-01T06:46:00.299Z,96316.66
2023-04-01T06:49:36.123Z,96315.52
2023-04-01T06:53:23.390Z,96316.42
2023-04-01T06:57:22.504Z,96317.88
2023-04-01T07:00:35.820Z,96319.31
2023-04-01T07:04:10.846Z,96323.54
2023-04-01T07:07:44.886Z,96323.15
2023-04-01T07:11:30.550Z,96325.19
2023-04-01T07:14:57.280Z,96323.09
2023-04-01T07:18:57.674Z,96329.31
2023-04-01T07:22:30.064Z,96331.97
2023-04-01T07:26:25.188Z,96333.52
2023-04-01T07:29:46.137Z,96329.64
2023-04-01T07:33:33.078Z,96332.44
2023-04-01T07:37:16.201Z,96335.80
2023-04-01T07:40:57.451Z,96332.98
2023-04-01T07:44:45.794Z,96336.61
2023-04-01T07:48:26.022Z,96336.33
2023-04-01T07:51:52.419Z,96341.85
2023-04-01T07:55:31.422Z,96342.55
2023-04-01T07:59:44.905Z,96344.45
2023-04-01T08:03:19.440Z,96351.11
2023-04-01T08:07:11.136Z,96354.33
2023-04-01T08:10:56.704Z,96356.11
2023-04-01T08:14:46.381Z,96359.45
2023-04-01T08:18:32.101Z,96362.67
2023-04-01T08:21:53.474Z,96364.48
2023-04-01T08:25:58.540Z,96366.77
2023-04-01T08:29:05.331Z,96368.54
2023-04-01T08:32:44.276Z,96368.19
2023-04-01T08:36:29.753Z,96364.55
2023-04-01T08:40:25.167Z,96365.73
2023-04-01T08:44:01.173Z,96362.71
2023-04-01T08:47:44.755Z,96363.73
2023-04-01T08:51:12.463Z,96366.19
2023-04-01T08:54:43.569Z,96364.23
2023-04-01T08:58:23.755Z,96363.77
2023-04-01T09:02:04.962Z,96365.12
2023-04-01T09:06:22.517Z,96368.91
2023-04-01T09:09:47.156Z,96371.02
2023-04-01T09:13:30.670Z,96372.51
2023-04-01T09:17:26.017Z,96369.72
2023-04-01T09:21:06.317Z,96362.83
2023-04-01T09:24:15.806Z,96365.80
2023-04-01T09:28:02.905Z,96363.37
2023-04-01T09:32:11.021Z,96365.34
2023-04-01T09:35:37.967Z,96366.90
2023-04-01T09:39:12.478Z,96368.41
2023-04-01T09:42:55.538Z,96370.33
2023-04-01T09:46:38.466Z,96371.77
2023-04-01T09:50:16.585Z,96374.58
2023-04-01T09:53:44.983Z,96377.91
2023-04-01T09:57:36.617Z,96371.94
2023-04-01T10:01:23.392Z,96370.38
2023-04-01T10:05:19.952Z,96370.08
2023-04-01T10:08:41.425Z,96369.71
2023-04-01T10:12:19.065Z,96372.46
2023-04-01T10:16:12.931Z,96366.20
2023-04-01T10:20:04.687Z,96360.81
2023-04-01T10:24:02.444Z,96362.64
2023-04-01T10:27:12.124Z,96362.02
2023-04-01T10:31:21.795Z,96357.97
2023-04-01T10:34:44.734Z,96359.84
2023-04-01T10:38:45.984Z,96357.99
2023-04-01T10:42:14.077Z,96357.44
2023-04-01T10:46:15.620Z,96354.27
2023-04-01T10:50:03.980Z,96356.58
2023-04-01T10:53:18.181Z,96358.72
2023-04-01T10:57:18.073Z,96358.70
2023-04-01T11:01:07.333Z,96358.06
2023-04-01T11:05:22.177Z,96357.12
2023-04-01T11:09:06.984Z,96362.92
2023-04-01T11:12:42.189Z,96363.96
2023-04-01T11:16:25.900Z,96363.59
2023-04-01T11:19:48.855Z,96364.18
2023-04-01T11:24:02.240Z,96359.91
2023-04-01T11:28:11.915Z,96360.77
2023-04-01T11:31:33.033Z,96357.08
2023-04-01T11:34:56.379Z,96356.92
2023-04-01T11:39:34.982Z,96351.52
2023-04-01T11:43:09.008Z,96348.23
2023-04-01T11:46:42.457Z,96344.92
2023-04-01T11:51:13.743Z,96342.94
2023-04-01T11:54:41.867Z,96350.23
2023-04-01T11:58:27.715Z,96357.33
2023-04-01T12:02:40.091Z,96355.38
2023-04-01T12:06:05.069Z,96349.12
2023-04-01T12:09:52.454Z,96344.15
2023-04-01T12:13:13.362Z,96347.62
2023-04-01T12:17:13.684Z,96345.10
2023-04-01T12:21:01.840Z,96355.91
2023-04-01T12:24:23.972Z,96354.23
2023-04-01T12:28:05.919Z,96351.40
2023-04-01T12:31:34.218Z,96348.20
2023-04-01T12:35:14.497Z,96353.33
2023-04-01T12:39:19.491Z,96361.98
2023-04-01T12:42:28.408Z,96376.25
2023-04-01T12:46:33.423Z,96387.21
2023-04-01T12:49:56.795Z,96388.85
2023-04-01T12:53:40.701Z,96386.60
2023-04-01T12:57:49.973Z,96388.30
2023-04-01T13:01:17.411Z,96399.27
2023-04-01T13:04:34.987Z,96409.40
2023-04-01T13:08:40.749Z,96419.48
2023-04-01T13:11:57.644Z,96428.36
2023-04-01T13:15:50.599Z,96431.23
2023-04-01T13:19:32.806Z,96437.41
2023-04-01T13:22:38.652Z,96436.89
2023-04-01T13:26:46.866Z,96429.35
2023-04-01T13:30:00.124Z,96433.34
2023-04-01T13:34:38.281Z,96436.30
2023-04-01T13:37:53.670Z,96436.95
2023-04-01T13:41:25.586Z,96440.89
2023-04-01T13:45:21.599Z,96442.43
2023-04-01T13:48:49.398Z,96444.61
2023-04-01T13:52:21.051Z,96445.13
2023-04-01T13:56:35.534Z,96448.05
2023-04-01T14:00:04.385Z,96456.61
2023-04-01T14:04:00.876Z,96457.89
2023-04-01T14:07:18.957Z,96455.60
2023-04-01T14:11:00.817Z,96457.03
2023-04-01T14:14:28.327Z,96455.91
2023-04-01T14:18:27.740Z,96454.85
2023-04-01T14:21:56.900Z,96455.56
2023-04-01T14:25:40.568Z,96456.14
2023-04-01T14:29:36.049Z,96454.58
2023-04-01T14:32:48.999Z,96457.48
2023-04-01T14:36:44.240Z,96461.30
2023-04-01T14:40:54.561Z,96464.23
2023-04-01T14:44:16.771Z,96471.48
2023-04-01T14:47:49.634Z,96468.56
2023-04-01T14:51:33.980Z,96472.12
2023-04-01T14:54:52.125Z,96475.42
2023-04-01T14:59:00.643Z,96476.70
2023-04-01T15:02:30.907Z,96475.52
2023-04-01T15:06:03.301Z,96477.34
2023-04-01T15:09:59.698Z,96484.42
2023-04-01T15:13:13.695Z,96484.27
2023-04-01T15:17:10.307Z,96484.30
2023-04-01T15:20:42.137Z,96489.80
2023-04-01T15:24:14.902Z,96489.83
2023-04-01T15:28:11.523Z,96491.58
2023-04-01T15:32:05.453Z,96494.82
2023-04-01T15:35:47.912Z,96500.93
2023-04-01T15:39:14.265Z,96508.30
2023-04-01T15:42:29.500Z,96510.89
2023-04-01T15:46:17.430Z,96516.14
2023-04-01T15:50:23.364Z,96517.73
2023-04-01T15:53:57.888Z,96520.70
2023-04-01T15:57:28.963Z,96521.71
2023-04-01T16:00:41.606Z,96527.41
2023-04-01T16:04:49.878Z,96535.23
2023-04-01T16:08:08.557Z,96535.63
2023-04-01T16:11:57.857Z,96536.54
2023-04-01T16:15:27.356Z,96538.23
2023-04-01T16:19:23.240Z,96542.86
2023-04-01T16:22:35.489Z,96546.91
2023-04-01T16:26:21.695Z,96544.22
2023-04-01T16:30:04.273Z,96546.11
2023-04-01T16:33:49.227Z,96546.48
2023-04-01T16:37:14.061Z,96546.88
2023-04-01T16:40:54.322Z,96553.39
2023-04-01T16:44:13.745Z,96557.41
2023-04-01T16:48:14.369Z,96561.38
2023-04-01T16:51:52.381Z,96567.68
2023-04-01T16:55:58.019Z,96573.56
2023-04-01T16:59:07.505Z,96580.40
2023-04-01T17:02:48.950Z,96586.66
2023-04-01T17:06:45.450Z,96589.55
2023-04-01T17:10:28.244Z,96589.47
2023-04-01T17:13:55.863Z,96597.83
2023-04-01T17:17:27.784Z,96605.98
2023-04-01T17:21:13.497Z,96607.73
2023-04-01T17:25:06.471Z,96617.85
2023-04-01T17:28:32.087Z,96624.98
2023-04-01T17:32:17.356Z,96630.77
2023-04-01T17:35:38.760Z,96632.09
2023-04-01T17:39:28.563Z,96639.37
2023-04-01T17:42:56.362Z,96645.73
2023-04-01T17:46:36.562Z,96651.50
2023-04-01T17:50:45.653Z,96658.84
2023-04-01T17:54:32.242Z,96665.29
2023-04-01T17:58:04.165Z,96670.81
2023-04-01T18:01:46.333Z,96678.52
2023-04-01T18:05:05.764Z,96684.20
2023-04-01T18:08:53.208Z,96688.27
2023-04-01T18:12:33.615Z,96689.84
2023-04-01T18:16:02.137Z,96695.95
2023-04-01T18:19:33.905Z,96701.40
2023-04-01T18:23:15.525Z,96699.41
2023-04-01T18:26:40.992Z,96705.46
2023-04-01T18:30:19.801Z,96710.05
2023-04-01T18:34:09.189Z,96708.68
2023-04-01T18:37:35.254Z,96712.39
2023-04-01T18:41:35.684Z,96718.25
2023-04-01T18:44:56.212Z,96724.25
2023-04-01T18:48:53.359Z,96724.40
2023-04-01T18:52:27.315Z,96728.06
2023-04-01T18:55:48.803Z,96730.34
2023-04-01T18:59:41.594Z,96735.97
2023-04-01T19:03:03.976Z,96737.30
2023-04-01T19:06:58.947Z,96740.95
2023-04-01T19:10:36.334Z,96745.37
2023-04-01T19:14:12.901Z,96748.02
2023-04-01T19:18:01.940Z,96749.10
2023-04-01T19:21:15.020Z,96753.49
2023-04-01T19:25:11.366Z,96753.73
2023-04-01T19:28:29.119Z,96756.09
2023-04-01T19:32:03.313Z,96763.52
2023-04-01T19:36:12.870Z,96771.40
2023-04-01T19:39:53.019Z,96777.46
2023-04-01T19:43:06.614Z,96783.28
2023-04-01T19:46:49.501Z,96786.57
2023-04-01T19:50:58.051Z,96791.92
2023-04-01T19:54:37.837Z,96793.27
2023-04-01T19:58:16.068Z,96797.95
2023-04-01T20:01:49.089Z,96802.05
2023-04-01T20:05:17.000Z,96804.80
2023-04-01T20:09:04.090Z,96808.67
2023-04-01T20:12:47.051Z,96807.06
2023-04-01T20:16:06.187Z,96810.14
2023-04-01T20:20:10.960Z,96813.60
2023-04-01T20:23:53.209Z,96816.85
2023-04-01T20:27:11.618Z,96821.61
2023-04-01T20:31:15.882Z,96824.45
2023-04-01T20:34:37.123Z,96825.79
2023-04-01T20:38:33.118Z,96830.05
2023-04-01T20:41:52.767Z,96831.05
2023-04-01T20:45:29.429Z,96835.84
2023-04-01T20:49:23.907Z,96838.35
2023-04-01T20:53:12.151Z,96842.98
2023-04-01T20:56:57.844Z,96842.00
2023-04-01T21:00:37.391Z,96843.52
2023-04-01T21:04:02.456Z,96851.71
2023-04-01T21:07:38.853Z,96853.67
2023-04-01T21:10:58.898Z,96852.77
2023-04-01T21:15:05.260Z,96858.74
2023-04-01T21:18:42.008Z,96856.30
2023-04-01T21:22:26.504Z,96861.30
2023-04-01T21:25:37.300Z,96866.20
2023-04-01T21:29:35.063Z,96867.92
2023-04-01T21:33:14.154Z,96868.41
2023-04-01T21:36:37.769Z,96871.79
2023-04-01T21:40:04.945Z,96871.84
2023-04-01T21:44:00.193Z,96875.36
2023-04-01T21:47:24.922Z,96876.55
2023-04-01T21:51:28.096Z,96878.39
2023-04-01T21:54:45.679Z,96880.80
2023-04-01T21:58:27.056Z,96887.56
2023-04-01T22:02:22.152Z,96885.86
2023-04-01T22:06:00.431Z,96891.09
2023-04-01T22:09:12.815Z,96896.54
2023-04-01T22:13:03.792Z,96896.11
2023-04-01T22:16:51.700Z,96898.77
2023-04-01T22:20:34.198Z,96904.20
2023-04-01T22:23:49.059Z,96908.60
2023-04-01T22:27:44.648Z,96911.36
2023-04-01T22:30:57.473Z,96915.80
2023-04-01T22:35:14.352Z,96918.63
2023-04-01T22:38:48.435Z,96918.19
2023-04-01T22:42:15.076Z,96917.48
2023-04-01T22:46:06.552Z,96922.48
2023-04-01T22:49:33.821Z,96928.18
2023-04-01T22:53:27.930Z,96931.14
2023-04-01T22:56:41.211Z,96931.41
2023-04-01T23:00:42.697Z,96933.67
2023-04-01T23:03:52.308Z,96936.23
2023-04-01T23:07:32.764Z,96937.62
2023-04-01T23:11:09.249Z,96936.05
2023-04-01T23:14:52.470Z,96942.77
2023-04-01T23:18:29.084Z,96948.86
2023-04-01T23:22:36.338Z,96952.05
2023-04-01T23:25:55.209Z,96956.40
2023-04-01T23:29:40.443Z,96954.61
2023-04-01T23:32:54.393Z,96956.77
2023-04-01T23:36:40.028Z,96959.49
2023-04-01T23:40:28.672Z,96963.73
2023-04-01T23:44:11.797Z,96967.45
2023-04-01T23:47:32.678Z,96965.84
2023-04-01T23:51:27.352Z,96967.81
2023-04-01T23:54:58.435Z,96971.31
2023-04-01T23:58:49.015Z,96976.20
